createdAt,value
2022-12-01T00:01:44.031Z,101330.60
2022-12-01T00:04:12.773Z,101323.20
2022-12-01T00:06:41.426Z,101322.80
2022-12-01T00:09:31.373Z,101327.00
2022-12-01T00:12:00.020Z,101324.40
2022-12-01T00:14:28.725Z,101320.20
2022-12-01T00:16:57.514Z,101321.40
2022-12-01T00:19:28.494Z,101322.00
2022-12-01T00:21:57.616Z,101324.80
2022-12-01T00:24:26.555Z,101323.60
2022-12-01T00:26:55.354Z,101329.00
2022-12-01T00:29:24.045Z,101336.00
2022-12-01T00:31:52.786Z,101327.20
2022-12-01T00:34:30.942Z,101334.60
2022-12-01T00:38:21.534Z,101331.40
2022-12-01T00:41:14.798Z,101326.40
2022-12-01T00:43:48.736Z,101321.00
2022-12-01T00:46:21.992Z,101312.20
2022-12-01T00:48:51.575Z,101315.60
2022-12-01T00:51:20.359Z,101321.00
2022-12-01T00:53:49.018Z,101320.20
2022-12-01T00:56:17.774Z,101319.00
2022-12-01T00:58:46.534Z,101318.60
2022-12-01T01:01:20.492Z,101322.20
2022-12-01T01:03:49.734Z,101319.60
2022-12-01T01:06:18.502Z,101320.80
2022-12-01T01:08:47.195Z,101320.00
2022-12-01T01:11:15.995Z,101318.80
2022-12-01T01:13:44.936Z,101314.20
2022-12-01T01:16:22.532Z,101313.00
2022-12-01T01:18:51.354Z,101313.60
2022-12-01T01:21:22.393Z,101311.60
2022-12-01T01:23:53.475Z,101306.00
2022-12-01T01:26:31.195Z,101302.20
2022-12-01T01:29:03.343Z,101306.00
2022-12-01T01:31:33.557Z,101307.80
2022-12-01T01:34:02.404Z,101304.60
2022-12-01T01:36:31.314Z,101303.60
2022-12-01T01:39:04.746Z,101293.20
2022-12-01T01:41:34.252Z,101298.40
2022-12-01T01:44:04.944Z,101298.20
2022-12-01T01:46:35.507Z,101298.40
2022-12-01T01:49:12.474Z,101298.60
2022-12-01T01:51:53.097Z,101295.80
2022-12-01T01:54:31.898Z,101298.20
2022-12-01T01:57:02.658Z,101296.40
2022-12-01T01:59:46.982Z,101302.60
2022-12-01T02:02:16.748Z,101300.60
2022-12-01T02:04:57.482Z,101297.40
2022-12-01T02:07:26.320Z,101289.80
2022-12-01T02:09:56.420Z,101285.80
2022-12-01T02:13:39.073Z,101289.80
2022-12-01T02:16:29.287Z,101279.80
2022-12-01T02:19:24.671Z,101282.20
2022-12-01T02:22:23.867Z,101288.00
2022-12-01T02:25:18.964Z,101290.20
2022-12-01T02:28:16.247Z,101282.60
2022-12-01T02:31:06.487Z,101285.20
2022-12-01T02:33:53.572Z,101288.00
2022-12-01T02:36:55.304Z,101284.40
2022-12-01T02:39:52.012Z,101283.80
2022-12-01T02:43:03.758Z,101280.40
2022-12-01T02:46:01.114Z,101277.40
2022-12-01T02:48:37.740Z,101275.60
2022-12-01T02:51:24.671Z,101273.20
2022-12-01T02:54:00.959Z,101272.00
2022-12-01T02:56:34.523Z,101269.00
2022-12-01T02:59:15.631Z,101268.20
2022-12-01T03:02:29.028Z,101266.80
2022-12-01T03:05:33.641Z,101266.20
2022-12-01T03:08:29.880Z,101270.00
2022-12-01T03:11:02.456Z,101267.80
2022-12-01T03:14:23.370Z,101259.20
2022-12-01T03:16:58.210Z,101263.40
2022-12-01T03:19:51.045Z,101262.80
2022-12-01T03:22:55.442Z,101256.40
2022-12-01T03:25:31.257Z,101253.80
2022-12-01T03:28:22.626Z,101248.20
2022-12-01T03:31:04.059Z,101246.80
2022-12-01T03:33:47.827Z,101247.00
2022-12-01T03:36:28.363Z,101253.80
2022-12-01T03:39:09.217Z,101258.80
2022-12-01T03:41:54.508Z,101261.20
2022-12-01T03:44:43.685Z,101260.00
2022-12-01T03:47:24.672Z,101264.00
2022-12-01T03:49:57.297Z,101261.00
2022-12-01T03:52:54.406Z,101264.00
2022-12-01T03:55:35.357Z,101263.00
2022-12-01T03:58:14.363Z,101265.40
2022-12-01T04:00:50.320Z,101260.40
2022-12-01T04:03:26.906Z,101263.00
2022-12-01T04:05:58.702Z,101263.80
2022-12-01T04:08:34.137Z,101263.20
2022-12-01T04:11:32.666Z,101262.80
2022-12-01T04:14:04.921Z,101253.80
2022-12-01T04:16:38.248Z,101256.60
2022-12-01T04:19:12.371Z,101258.60
2022-12-01T04:21:44.773Z,101258.60
2022-12-01T04:24:18.139Z,101266.60
2022-12-01T04:26:51.330Z,101271.60
2022-12-01T04:29:24.481Z,101267.80
2022-12-01T04:31:58.373Z,101266.40
2022-12-01T04:34:31.567Z,101262.60
2022-12-01T04:37:07.712Z,101262.40
2022-12-01T04:39:42.478Z,101264.60
2022-12-01T04:42:14.334Z,101263.40
2022-12-01T04:44:50.130Z,101261.80
2022-12-01T04:47:24.064Z,101263.20
2022-12-01T04:49:57.275Z,101265.80
2022-12-01T04:52:34.990Z,101270.00
2022-12-01T04:55:09.326Z,101266.40
2022-12-01T04:57:42.545Z,101270.60
2022-12-01T05:00:15.896Z,101273.60
2022-12-01T05:02:47.611Z,101274.80
2022-12-01T05:05:21.346Z,101271.60
2022-12-01T05:07:54.548Z,101276.00
2022-12-01T05:10:28.641Z,101277.00
2022-12-01T05:13:02.714Z,101275.80
2022-12-01T05:15:36.068Z,101272.40
2022-12-01T05:18:09.380Z,101270.40
2022-12-01T05:20:57.507Z,101268.60
2022-12-01T05:23:33.155Z,101271.40
2022-12-01T05:26:09.590Z,101271.00
2022-12-01T05:28:43.414Z,101269.20
2022-12-01T05:31:16.760Z,101272.80
2022-12-01T05:33:50.155Z,101269.00
2022-12-01T05:36:23.735Z,101272.00
2022-12-01T05:38:56.109Z,101272.60
2022-12-01T05:41:29.317Z,101278.40
2022-12-01T05:44:02.639Z,101279.60
2022-12-01T05:46:35.065Z,101274.60
2022-12-01T05:49:07.170Z,101274.80
2022-12-01T05:51:39.194Z,101280.20
2022-12-01T05:54:07.860Z,101274.60
2022-12-01T05:56:37.392Z,101266.80
2022-12-01T05:59:06.217Z,101276.60
2022-12-01T06:01:35.064Z,101271.20
2022-12-01T06:04:04.734Z,101274.60
2022-12-01T06:06:33.729Z,101274.80
2022-12-01T06:09:02.729Z,101276.20
2022-12-01T06:11:31.704Z,101269.60
2022-12-01T06:14:01.005Z,101273.20
2022-12-01T06:16:33.022Z,101276.40
2022-12-01T06:19:14.615Z,101280.20
2022-12-01T06:21:55.049Z,101282.00
2022-12-01T06:24:26.387Z,101284.60
2022-12-01T06:26:55.268Z,101283.80
2022-12-01T06:29:24.273Z,101285.40
2022-12-01T06:31:53.287Z,101273.40
2022-12-01T06:34:22.349Z,101282.00
2022-12-01T06:36:51.349Z,101287.20
2022-12-01T06:39:20.348Z,101287.00
2022-12-01T06:41:50.066Z,101284.80
2022-12-01T06:44:19.052Z,101284.20
2022-12-01T06:46:47.948Z,101280.00
2022-12-01T06:49:17.039Z,101281.60
2022-12-01T06:51:46.890Z,101276.20
2022-12-01T06:54:15.888Z,101280.40
2022-12-01T06:56:46.452Z,101277.80
2022-12-01T06:59:15.668Z,101280.20
2022-12-01T07:01:44.675Z,101280.60
2022-12-01T07:04:13.547Z,101285.00
2022-12-01T07:06:42.727Z,101284.60
2022-12-01T07:09:11.668Z,101286.80
2022-12-01T07:11:40.629Z,101294.60
2022-12-01T07:14:23.251Z,101289.40
2022-12-01T07:16:52.188Z,101290.20
2022-12-01T07:19:21.453Z,101295.80
2022-12-01T07:21:50.755Z,101287.00
2022-12-01T07:24:19.631Z,101295.40
2022-12-01T07:26:48.832Z,101297.60
2022-12-01T07:29:18.230Z,101296.20
2022-12-01T07:31:47.332Z,101297.60
2022-12-01T07:34:16.231Z,101296.60
2022-12-01T07:36:45.213Z,101294.20
2022-12-01T07:39:14.211Z,101292.40
2022-12-01T07:41:43.110Z,101295.00
2022-12-01T07:44:12.610Z,101299.00
2022-12-01T07:46:41.877Z,101302.00
2022-12-01T07:49:15.306Z,101304.40
2022-12-01T07:51:47.846Z,101305.00
2022-12-01T07:54:18.112Z,101306.20
2022-12-01T07:56:47.095Z,101309.60
2022-12-01T07:59:16.190Z,101312.80
2022-12-01T08:01:46.981Z,101312.80
2022-12-01T08:04:18.540Z,101311.00
2022-12-01T08:06:48.618Z,101307.40
2022-12-01T08:09:17.910Z,101307.80
2022-12-01T08:11:47.429Z,101303.40
2022-12-01T08:14:16.711Z,101306.40
2022-12-01T08:16:45.798Z,101304.20
2022-12-01T08:19:15.090Z,101304.80
2022-12-01T08:21:44.013Z,101303.40
2022-12-01T08:24:13.195Z,101300.00
2022-12-01T08:26:42.091Z,101298.00
2022-12-01T08:29:13.555Z,101298.80
2022-12-01T08:31:45.092Z,101300.40
2022-12-01T08:34:14.091Z,101297.20
2022-12-01T08:36:43.073Z,101296.40
2022-12-01T08:39:12.594Z,101295.00
2022-12-01T08:41:41.571Z,101295.60
2022-12-01T08:44:11.607Z,101292.20
2022-12-01T08:46:40.684Z,101296.60
2022-12-01T08:49:09.798Z,101296.80
2022-12-01T08:51:38.794Z,101297.60
2022-12-01T08:54:07.771Z,101295.80
2022-12-01T08:56:41.310Z,101297.40
2022-12-01T08:59:10.572Z,101297.80
2022-12-01T09:01:52.461Z,101298.00
2022-12-01T09:04:26.772Z,101294.00
2022-12-01T09:06:58.577Z,101295.40
2022-12-01T09:09:29.891Z,101298.20
2022-12-01T09:11:59.190Z,101296.60
2022-12-01T09:14:28.793Z,101298.40
2022-12-01T09:16:58.011Z,101297.00
2022-12-01T09:19:29.259Z,101295.80
2022-12-01T09:21:58.151Z,101296.40
2022-12-01T09:24:31.455Z,101298.20
2022-12-01T09:27:01.151Z,101297.00
2022-12-01T09:29:31.789Z,101296.80
2022-12-01T09:32:02.385Z,101302.20
2022-12-01T09:34:31.610Z,101295.80
2022-12-01T09:37:00.711Z,101295.00
2022-12-01T09:39:30.290Z,101292.20
2022-12-01T09:42:16.910Z,101288.80
2022-12-01T09:44:53.458Z,101287.20
2022-12-01T09:47:28.991Z,101282.80
2022-12-01T09:50:06.956Z,101283.00
2022-12-01T09:53:07.290Z,101279.80
2022-12-01T09:55:36.993Z,101272.60
2022-12-01T09:58:17.296Z,101269.00
2022-12-01T10:00:49.875Z,101268.80
2022-12-01T10:03:24.640Z,101265.80
2022-12-01T10:06:27.081Z,101261.80
2022-12-01T10:09:15.050Z,101264.80
2022-12-01T10:11:47.231Z,101258.40
2022-12-01T10:14:20.656Z,101260.00
2022-12-01T10:17:06.908Z,101260.60
2022-12-01T10:20:13.730Z,101256.80
2022-12-01T10:23:15.570Z,101261.40
2022-12-01T10:26:03.313Z,101260.20
2022-12-01T10:28:54.950Z,101259.60
2022-12-01T10:31:37.700Z,101256.60
2022-12-01T10:34:25.370Z,101254.80
2022-12-01T10:36:54.890Z,101249.80
2022-12-01T10:39:40.551Z,101249.60
2022-12-01T10:42:40.590Z,101245.80
2022-12-01T10:45:20.609Z,101242.20
2022-12-01T10:48:17.930Z,101238.20
2022-12-01T10:51:17.124Z,101245.40
2022-12-01T10:53:46.313Z,101248.20
2022-12-01T10:56:22.600Z,101246.00
2022-12-01T10:58:57.573Z,101240.00
2022-12-01T11:01:37.647Z,101240.40
2022-12-01T11:04:54.368Z,101239.40
2022-12-01T11:07:59.411Z,101241.80
2022-12-01T11:10:34.623Z,101231.80
2022-12-01T11:13:24.871Z,101231.00
2022-12-01T11:16:07.926Z,101228.60
2022-12-01T11:18:41.236Z,101227.80
2022-12-01T11:21:27.530Z,101225.40
2022-12-01T11:23:57.473Z,101226.20
2022-12-01T11:26:32.835Z,101222.60
2022-12-01T11:29:32.870Z,101221.00
2022-12-01T11:32:38.500Z,101220.20
2022-12-01T11:35:22.692Z,101220.40
2022-12-01T11:40:54.510Z,101218.60
2022-12-01T11:44:00.835Z,101215.40
2022-12-01T11:46:50.137Z,101219.00
2022-12-01T11:49:31.308Z,101217.60
2022-12-01T11:52:30.524Z,101213.60
2022-12-01T11:55:27.646Z,101217.80
2022-12-01T11:58:04.570Z,101219.20
2022-12-01T12:00:53.731Z,101210.00
2022-12-01T12:03:44.299Z,101213.00
2022-12-01T12:06:51.621Z,101217.80
2022-12-01T12:10:12.036Z,101214.20
2022-12-01T12:12:52.801Z,101216.80
2022-12-01T12:15:59.281Z,101212.80
2022-12-01T12:19:12.486Z,101214.80
2022-12-01T12:22:17.948Z,101215.60
2022-12-01T12:25:44.394Z,101214.80
2022-12-01T12:29:13.659Z,101216.60
2022-12-01T12:32:40.856Z,101206.80
2022-12-01T12:35:52.971Z,101211.00
2022-12-01T12:38:58.198Z,101207.20
2022-12-01T12:41:35.684Z,101209.20
2022-12-01T12:44:37.041Z,101205.40
2022-12-01T12:47:36.969Z,101204.40
2022-12-01T12:50:39.254Z,101205.00
2022-12-01T12:53:22.620Z,101205.80
2022-12-01T12:56:02.909Z,101208.40
2022-12-01T12:58:45.547Z,101209.80
2022-12-01T13:01:26.367Z,101213.60
2022-12-01T13:04:09.951Z,101208.80
2022-12-01T13:07:03.810Z,101214.80
2022-12-01T13:09:45.007Z,101218.20
2022-12-01T13:12:26.512Z,101214.80
2022-12-01T13:15:16.541Z,101211.60
2022-12-01T13:18:14.051Z,101215.20
2022-12-01T13:20:44.570Z,101216.20
2022-12-01T13:23:20.546Z,101215.20
2022-12-01T13:40:42.240Z,101228.40
2022-12-01T14:02:25.444Z,101232.80
2022-12-01T14:04:55.970Z,101227.40
2022-12-01T14:07:36.528Z,101224.60
2022-12-01T14:10:33.433Z,101222.20
2022-12-01T14:13:25.712Z,101224.00
2022-12-01T14:16:05.880Z,101227.00
2022-12-01T14:24:16.699Z,101227.20
2022-12-01T14:26:52.973Z,101225.40
2022-12-01T14:29:32.299Z,101223.60
2022-12-01T14:32:01.241Z,101225.60
2022-12-01T14:34:34.700Z,101229.20
2022-12-01T14:37:26.739Z,101222.80
2022-12-01T14:40:07.873Z,101223.20
2022-12-01T14:43:26.050Z,101227.80
2022-12-01T14:46:25.041Z,101224.00
2022-12-01T14:48:57.210Z,101224.00
2022-12-01T14:51:35.699Z,101228.60
2022-12-01T14:54:18.513Z,101227.40
2022-12-01T14:56:53.079Z,101229.20
2022-12-01T14:59:26.751Z,101229.00
2022-12-01T15:02:09.805Z,101227.60
2022-12-01T15:05:15.951Z,101222.00
2022-12-01T15:07:54.264Z,101222.00
2022-12-01T15:10:35.128Z,101216.60
2022-12-01T15:13:21.410Z,101220.00
2022-12-01T15:16:03.820Z,101213.80
2022-12-01T15:18:40.260Z,101206.60
2022-12-01T15:21:20.031Z,101200.20
2022-12-01T15:24:05.262Z,101200.40
2022-12-01T15:26:46.009Z,101197.80
2022-12-01T15:29:29.927Z,101196.00
2022-12-01T15:32:08.916Z,101198.00
2022-12-01T15:34:46.665Z,101193.00
2022-12-01T15:37:23.121Z,101197.40
2022-12-01T15:40:11.976Z,101201.40
2022-12-01T15:43:00.228Z,101205.80
2022-12-01T15:45:52.551Z,101209.60
2022-12-01T15:48:46.101Z,101206.00
2022-12-01T15:51:29.448Z,101206.80
2022-12-01T15:54:05.361Z,101208.40
2022-12-01T15:56:41.609Z,101204.00
2022-12-01T15:59:41.267Z,101207.80
2022-12-01T16:02:20.750Z,101208.80
2022-12-01T16:05:12.469Z,101200.40
2022-12-01T16:08:12.202Z,101201.20
2022-12-01T16:10:37.496Z,101198.40
2022-12-01T16:13:41.091Z,101199.00
2022-12-01T16:16:32.216Z,101203.00
2022-12-01T16:19:10.932Z,101206.00
2022-12-01T16:22:22.314Z,101203.20
2022-12-01T16:24:55.453Z,101208.20
2022-12-01T16:27:28.890Z,101211.00
2022-12-01T16:30:19.687Z,101211.00
2022-12-01T16:32:49.813Z,101202.20
2022-12-01T16:35:21.789Z,101205.00
2022-12-01T16:37:51.309Z,101195.20
2022-12-01T16:40:20.689Z,101198.00
2022-12-01T16:42:50.832Z,101201.00
2022-12-01T16:45:20.971Z,101200.80
2022-12-01T16:47:50.469Z,101210.60
2022-12-01T16:50:22.831Z,101207.00
2022-12-01T16:52:53.842Z,101206.00
2022-12-01T16:55:56.150Z,101207.80
2022-12-01T16:58:25.418Z,101205.40
2022-12-01T17:00:55.181Z,101203.20
2022-12-01T17:03:28.279Z,101210.40
2022-12-01T17:06:01.750Z,101208.00
2022-12-01T17:08:30.929Z,101208.40
2022-12-01T17:11:00.410Z,101204.40
2022-12-01T17:13:29.593Z,101204.40
2022-12-01T17:15:58.678Z,101201.20
2022-12-01T17:18:28.250Z,101199.80
2022-12-01T17:21:07.430Z,101199.40
2022-12-01T17:23:38.982Z,101192.40
2022-12-01T17:26:18.770Z,101195.00
2022-12-01T17:28:48.133Z,101191.60
2022-12-01T17:31:20.033Z,101200.00
2022-12-01T17:33:51.025Z,101195.40
2022-12-01T17:36:20.440Z,101193.60
2022-12-01T17:38:50.191Z,101195.40
2022-12-01T17:41:25.851Z,101202.40
2022-12-01T17:43:56.650Z,101195.00
2022-12-01T17:46:26.395Z,101200.20
2022-12-01T17:48:55.376Z,101197.60
2022-12-01T17:51:24.270Z,101200.20
2022-12-01T17:53:54.440Z,101202.00
2022-12-01T17:56:23.432Z,101195.40
2022-12-01T17:58:52.590Z,101197.80
2022-12-01T18:01:28.455Z,101197.20
2022-12-01T18:03:59.632Z,101195.40
2022-12-01T18:06:29.350Z,101197.60
2022-12-01T18:09:02.840Z,101197.20
2022-12-01T18:11:34.860Z,101206.60
2022-12-01T18:14:07.532Z,101206.40
2022-12-01T18:16:39.336Z,101204.60
2022-12-01T18:19:10.611Z,101209.60
2022-12-01T18:21:40.457Z,101204.40
2022-12-01T18:24:10.797Z,101204.00
2022-12-01T18:26:41.406Z,101205.20
2022-12-01T18:29:26.426Z,101209.60
2022-12-01T18:31:57.851Z,101209.80
2022-12-01T18:34:29.831Z,101207.00
2022-12-01T18:36:59.511Z,101202.00
2022-12-01T18:39:29.471Z,101201.00
2022-12-01T18:41:58.531Z,101200.00
2022-12-01T18:44:27.711Z,101200.00
2022-12-01T18:46:58.313Z,101205.80
2022-12-01T18:49:27.785Z,101205.40
2022-12-01T18:51:58.108Z,101203.60
2022-12-01T18:54:28.009Z,101205.40
2022-12-01T18:56:59.546Z,101204.40
2022-12-01T18:59:29.530Z,101200.80
2022-12-01T19:01:58.694Z,101201.80
2022-12-01T19:04:28.412Z,101197.40
2022-12-01T19:06:57.611Z,101191.60
2022-12-01T19:09:28.110Z,101197.00
2022-12-01T19:12:00.395Z,101201.80
2022-12-01T19:14:29.890Z,101200.40
2022-12-01T19:16:59.269Z,101195.80
2022-12-01T19:19:30.829Z,101196.80
2022-12-01T19:22:02.912Z,101193.00
2022-12-01T19:24:32.890Z,101189.20
2022-12-01T19:27:02.150Z,101187.00
2022-12-01T19:29:31.110Z,101192.60
2022-12-01T19:32:00.679Z,101193.60
2022-12-01T19:34:30.079Z,101194.00
2022-12-01T19:36:59.770Z,101193.40
2022-12-01T19:39:29.325Z,101193.80
2022-12-01T19:42:09.771Z,101193.00
2022-12-01T19:44:59.219Z,101191.80
2022-12-01T19:47:35.021Z,101195.00
2022-12-01T19:50:04.870Z,101194.60
2022-12-01T19:52:45.076Z,101196.00
2022-12-01T19:55:17.370Z,101198.40
2022-12-01T19:57:52.413Z,101199.00
2022-12-01T20:00:22.640Z,101197.20
2022-12-01T20:02:52.048Z,101195.20
2022-12-01T20:05:21.751Z,101192.40
2022-12-01T20:07:51.192Z,101188.40
2022-12-01T20:10:21.010Z,101189.00
2022-12-01T20:12:51.465Z,101191.00
2022-12-01T20:15:20.484Z,101188.80
2022-12-01T20:17:50.571Z,101194.20
2022-12-01T20:20:19.910Z,101194.80
2022-12-01T20:22:48.950Z,101195.80
2022-12-01T20:25:18.132Z,101190.40
2022-12-01T20:27:47.190Z,101193.20
2022-12-01T20:30:16.674Z,101187.40
2022-12-01T20:32:46.186Z,101187.00
2022-12-01T20:35:16.130Z,101187.00
2022-12-01T20:37:45.310Z,101183.00
2022-12-01T20:40:14.710Z,101188.60
2022-12-01T20:42:43.910Z,101179.80
2022-12-01T20:45:13.635Z,101182.60
2022-12-01T20:47:42.831Z,101185.60
2022-12-01T20:50:12.030Z,101190.20
2022-12-01T20:52:45.450Z,101189.20
2022-12-01T20:55:17.212Z,101187.20
2022-12-01T20:57:47.833Z,101189.00
2022-12-01T21:00:18.052Z,101186.80
2022-12-01T21:02:49.497Z,101188.00
2022-12-01T21:05:18.691Z,101185.60
2022-12-01T21:07:56.777Z,101185.40
2022-12-01T21:10:33.591Z,101181.80
2022-12-01T21:13:42.599Z,101182.00
2022-12-01T21:16:29.977Z,101187.60
2022-12-01T21:19:18.899Z,101179.60
2022-12-01T21:21:53.592Z,101184.00
2022-12-01T21:24:34.200Z,101181.80
2022-12-01T21:27:29.620Z,101189.60
2022-12-01T21:30:03.383Z,101192.20
2022-12-01T21:32:37.712Z,101189.20
2022-12-01T21:35:20.762Z,101186.00
2022-12-01T21:37:53.953Z,101186.00
2022-12-01T21:40:26.660Z,101185.20
2022-12-01T21:43:12.053Z,101180.00
2022-12-01T21:45:41.082Z,101190.00
2022-12-01T21:48:26.432Z,101190.80
2022-12-01T21:51:02.828Z,101190.40
2022-12-01T21:53:40.080Z,101191.60
2022-12-01T21:56:25.491Z,101189.20
2022-12-01T21:59:02.921Z,101180.40
2022-12-01T22:01:33.156Z,101179.80
2022-12-01T22:04:15.711Z,101183.80
2022-12-01T22:06:50.492Z,101182.20
2022-12-01T22:09:36.237Z,101179.00
2022-12-01T22:12:11.374Z,101173.00
2022-12-01T22:14:40.772Z,101173.60
2022-12-01T22:17:10.033Z,101172.20
2022-12-01T22:19:45.459Z,101168.40
2022-12-01T22:22:23.232Z,101169.60
2022-12-01T22:25:00.406Z,101167.60
2022-12-01T22:27:35.950Z,101163.00
2022-12-01T22:30:10.344Z,101165.00
2022-12-01T22:32:57.510Z,101170.00
2022-12-01T22:35:28.352Z,101167.80
2022-12-01T22:38:36.057Z,101168.40
2022-12-01T22:41:12.833Z,101169.20
2022-12-01T22:43:50.612Z,101169.20
2022-12-01T22:46:38.108Z,101174.20
2022-12-01T22:49:07.031Z,101170.60
2022-12-01T22:51:45.756Z,101167.80
2022-12-01T22:54:18.027Z,101166.20
2022-12-01T22:56:57.471Z,101170.40
2022-12-01T22:59:38.750Z,101167.40
2022-12-01T23:02:49.090Z,101166.40
2022-12-01T23:05:29.513Z,101165.40
2022-12-01T23:07:58.593Z,101166.20
2022-12-01T23:10:35.562Z,101162.40
2022-12-01T23:13:20.190Z,101162.80
2022-12-01T23:15:54.078Z,101158.20
2022-12-01T23:18:32.392Z,101155.00
2022-12-01T23:21:07.545Z,101152.40
2022-12-01T23:23:40.207Z,101144.00
2022-12-01T23:26:13.462Z,101144.20
2022-12-01T23:28:48.087Z,101142.20
2022-12-01T23:31:20.203Z,101139.20
2022-12-01T23:33:49.047Z,101144.00
2022-12-01T23:36:29.027Z,101139.80
2022-12-01T23:39:13.064Z,101134.00
2022-12-01T23:41:51.926Z,101132.20
2022-12-01T23:44:45.875Z,101130.60
2022-12-01T23:47:29.669Z,101126.80
2022-12-01T23:50:07.150Z,101128.60
2022-12-01T23:52:39.120Z,101126.20
2022-12-01T23:55:31.849Z,101125.00
2022-12-01T23:58:05.317Z,101126.40
